createdAt,value
2019-04-30T00:01:17.036Z,9.27
2019-04-30T00:03:50.479Z,9.37
2019-04-30T00:08:55.113Z,9.19
2019-04-30T00:11:25.026Z,9.18
2019-04-30T00:13:55.382Z,9.26
2019-04-30T00:16:22.836Z,9.02
2019-04-30T00:18:58.174Z,9.07
2019-04-30T00:21:20.911Z,9.36
2019-04-30T00:23:49.026Z,9.29
2019-04-30T00:26:17.378Z,8.84
2019-04-30T00:28:47.718Z,9.30
2019-04-30T00:31:17.637Z,8.85
2019-04-30T00:33:45.275Z,8.86
2019-04-30T00:36:14.825Z,8.86
2019-04-30T00:38:44.811Z,9.06
2019-04-30T00:41:12.991Z,8.68
2019-04-30T00:43:46.754Z,8.89
2019-04-30T00:46:11.063Z,8.60
2019-04-30T00:48:39.231Z,8.84
2019-04-30T00:51:14.010Z,8.92
2019-04-30T00:53:37.273Z,8.71
2019-04-30T00:56:05.788Z,8.27
2019-04-30T00:58:35.674Z,8.23
2019-04-30T01:01:20.650Z,8.13
2019-04-30T01:03:55.867Z,8.49
2019-04-30T01:06:28.483Z,8.24
2019-04-30T01:08:58.231Z,8.11
2019-04-30T01:11:25.364Z,7.76
2019-04-30T01:13:54.001Z,7.84
2019-04-30T01:16:23.627Z,7.83
2019-04-30T01:18:52.092Z,7.92
2019-04-30T01:21:20.311Z,8.34
2019-04-30T01:23:54.601Z,8.36
2019-04-30T01:26:18.754Z,8.30
2019-04-30T01:28:49.365Z,7.73
2019-04-30T01:31:18.739Z,7.28
2019-04-30T01:33:48.898Z,7.37
2019-04-30T01:36:17.116Z,7.47
2019-04-30T01:38:49.063Z,7.85
2019-04-30T01:41:15.220Z,8.22
2019-04-30T01:43:43.422Z,8.27
2019-04-30T01:46:13.925Z,8.20
2019-04-30T01:48:43.733Z,7.98
2019-04-30T01:51:13.488Z,8.12
2019-04-30T01:53:43.651Z,7.99
2019-04-30T01:56:45.245Z,7.98
2019-04-30T01:59:25.654Z,7.87
2019-04-30T02:01:53.838Z,7.74
2019-04-30T02:04:22.015Z,7.63
2019-04-30T02:06:50.117Z,7.53
2019-04-30T02:09:18.874Z,7.49
2019-04-30T02:11:48.794Z,7.45
2019-04-30T02:14:18.827Z,7.39
2019-04-30T02:16:49.305Z,7.32
2019-04-30T02:19:18.811Z,7.27
2019-04-30T02:21:48.707Z,7.39
2019-04-30T02:24:19.044Z,7.24
2019-04-30T02:26:48.379Z,7.14
2019-04-30T02:29:16.613Z,7.03
2019-04-30T02:31:44.709Z,7.05
2019-04-30T02:34:22.237Z,7.18
2019-04-30T02:37:09.819Z,7.16
2019-04-30T02:39:40.289Z,7.23
2019-04-30T02:42:09.703Z,6.92
2019-04-30T02:44:41.373Z,7.10
2019-04-30T02:47:11.765Z,6.79
2019-04-30T02:49:40.914Z,7.14
2019-04-30T02:52:09.857Z,7.07
2019-04-30T02:54:59.345Z,6.91
2019-04-30T02:57:29.914Z,6.77
2019-04-30T03:00:05.554Z,6.54
2019-04-30T03:02:33.714Z,6.62
2019-04-30T03:05:02.020Z,6.55
2019-04-30T03:07:30.281Z,6.48
2019-04-30T03:09:59.847Z,6.84
2019-04-30T03:12:33.154Z,6.69
2019-04-30T03:15:00.398Z,5.07
2019-04-30T03:17:46.840Z,6.58
2019-04-30T03:20:40.219Z,6.60
2019-04-30T03:23:09.799Z,6.55
2019-04-30T03:25:40.513Z,6.50
2019-04-30T03:28:09.736Z,6.43
2019-04-30T03:30:42.116Z,6.51
2019-04-30T03:33:12.239Z,6.47
2019-04-30T03:35:46.530Z,6.42
2019-04-30T03:38:09.704Z,6.36
2019-04-30T03:40:40.221Z,6.37
2019-04-30T03:43:09.955Z,6.36
2019-04-30T03:45:40.012Z,6.38
2019-04-30T03:48:09.950Z,6.41
2019-04-30T03:50:50.437Z,6.40
2019-04-30T03:53:06.874Z,6.37
2019-04-30T03:55:34.995Z,6.36
2019-04-30T03:58:03.158Z,6.34
2019-04-30T04:00:50.360Z,6.34
2019-04-30T04:03:20.149Z,6.41
2019-04-30T04:05:53.405Z,6.51
2019-04-30T04:08:39.072Z,6.68
2019-04-30T04:11:21.086Z,6.55
2019-04-30T04:13:49.596Z,6.46
2019-04-30T04:16:19.528Z,6.52
2019-04-30T04:18:50.079Z,6.55
2019-04-30T04:21:20.447Z,6.48
2019-04-30T04:23:49.288Z,6.45
2019-04-30T04:26:20.071Z,6.63
2019-04-30T04:28:49.418Z,6.65
2019-04-30T04:31:19.324Z,6.69
2019-04-30T04:33:52.257Z,6.84
2019-04-30T04:36:16.870Z,6.87
2019-04-30T04:38:45.377Z,6.70
2019-04-30T04:41:13.694Z,6.87
2019-04-30T04:43:41.890Z,6.89
2019-04-30T04:46:10.235Z,7.19
2019-04-30T04:48:39.443Z,7.28
2019-04-30T04:51:19.750Z,7.03
2019-04-30T04:53:40.001Z,6.94
2019-04-30T04:56:09.865Z,6.70
2019-04-30T04:58:39.993Z,7.04
2019-04-30T05:01:09.048Z,6.66
2019-04-30T05:03:39.953Z,6.69
2019-04-30T05:06:11.354Z,6.87
2019-04-30T05:08:39.656Z,7.05
2019-04-30T05:11:09.571Z,6.87
2019-04-30T05:13:38.936Z,7.32
2019-04-30T05:16:09.204Z,7.27
2019-04-30T05:18:39.137Z,6.91
2019-04-30T05:21:08.854Z,6.72
2019-04-30T05:23:39.313Z,6.62
2019-04-30T05:26:08.417Z,6.56
2019-04-30T05:28:36.935Z,6.60
2019-04-30T05:31:05.294Z,6.65
2019-04-30T05:33:33.448Z,6.70
2019-04-30T05:36:01.680Z,6.74
2019-04-30T05:38:31.291Z,6.86
2019-04-30T05:40:59.724Z,7.14
2019-04-30T05:43:29.005Z,7.39
2019-04-30T05:45:58.720Z,7.64
2019-04-30T05:48:28.630Z,7.61
2019-04-30T05:50:58.985Z,7.40
2019-04-30T05:53:28.679Z,7.46
2019-04-30T05:55:57.008Z,7.60
2019-04-30T05:58:25.197Z,7.79
2019-04-30T06:00:53.372Z,7.52
2019-04-30T06:03:28.168Z,7.43
2019-04-30T06:05:51.506Z,7.70
2019-04-30T06:08:21.704Z,7.68
2019-04-30T06:10:59.772Z,7.79
2019-04-30T06:13:53.014Z,8.11
2019-04-30T06:16:23.282Z,8.05
2019-04-30T06:18:51.517Z,8.08
2019-04-30T06:21:21.573Z,8.52
2019-04-30T06:23:49.694Z,8.84
2019-04-30T06:26:20.489Z,8.81
2019-04-30T06:28:49.614Z,8.69
2019-04-30T06:31:22.301Z,8.86
2019-04-30T06:33:48.729Z,8.89
2019-04-30T06:36:19.070Z,9.39
2019-04-30T06:38:48.866Z,9.11
2019-04-30T06:41:16.899Z,8.99
2019-04-30T06:43:45.152Z,9.10
2019-04-30T06:46:13.270Z,8.81
2019-04-30T06:48:42.017Z,8.91
2019-04-30T06:51:10.134Z,9.21
2019-04-30T06:53:39.175Z,8.89
2019-04-30T06:56:08.898Z,8.87
2019-04-30T06:58:39.183Z,8.60
2019-04-30T07:01:07.164Z,9.64
2019-04-30T07:03:35.298Z,9.93
2019-04-30T07:06:03.556Z,8.69
2019-04-30T07:08:57.893Z,8.95
2019-04-30T07:11:33.455Z,9.14
2019-04-30T07:14:01.581Z,8.73
2019-04-30T07:16:30.052Z,9.21
2019-04-30T07:18:58.603Z,10.13
2019-04-30T07:21:29.432Z,9.84
2019-04-30T07:23:57.382Z,9.43
2019-04-30T07:26:25.550Z,9.63
2019-04-30T07:28:55.241Z,9.84
2019-04-30T07:31:23.706Z,9.44
2019-04-30T07:33:53.864Z,9.70
2019-04-30T07:36:21.895Z,10.30
2019-04-30T07:38:56.114Z,9.93
2019-04-30T07:41:19.883Z,9.98
2019-04-30T07:43:49.445Z,10.19
2019-04-30T07:46:19.899Z,10.07
2019-04-30T07:48:49.977Z,10.83
2019-04-30T07:51:21.257Z,10.83
2019-04-30T07:53:49.626Z,10.87
2019-04-30T07:56:25.698Z,10.84
2019-04-30T07:58:50.263Z,11.14
2019-04-30T08:01:19.593Z,12.17
2019-04-30T08:03:54.881Z,11.61
2019-04-30T08:06:23.123Z,10.94
2019-04-30T08:08:54.721Z,10.96
2019-04-30T08:11:25.604Z,11.45
2019-04-30T08:13:51.706Z,11.06
2019-04-30T08:16:21.141Z,11.85
2019-04-30T08:18:49.342Z,12.88
2019-04-30T08:21:19.027Z,12.36
2019-04-30T08:23:48.949Z,12.33
2019-04-30T08:26:18.783Z,12.62
2019-04-30T08:28:48.757Z,11.76
2019-04-30T08:31:19.392Z,12.52
2019-04-30T08:33:49.089Z,12.05
2019-04-30T08:36:17.073Z,12.16
2019-04-30T08:38:45.209Z,11.38
2019-04-30T08:41:13.400Z,12.62
2019-04-30T08:43:41.581Z,12.45
2019-04-30T08:46:09.780Z,12.84
2019-04-30T08:48:47.790Z,13.25
2019-04-30T08:51:09.963Z,12.62
2019-04-30T08:53:38.855Z,13.74
2019-04-30T08:56:07.725Z,13.60
2019-04-30T08:58:35.900Z,13.02
2019-04-30T09:01:04.127Z,13.11
2019-04-30T09:03:32.265Z,13.11
2019-04-30T09:06:14.508Z,14.95
2019-04-30T09:08:44.154Z,15.30
2019-04-30T09:11:22.375Z,13.01
2019-04-30T09:13:42.479Z,12.89
2019-04-30T09:16:10.622Z,14.14
2019-04-30T09:18:39.347Z,13.27
2019-04-30T09:21:08.991Z,13.01
2019-04-30T09:23:47.343Z,13.14
2019-04-30T09:26:08.669Z,15.40
2019-04-30T09:28:37.045Z,15.53
2019-04-30T09:31:05.209Z,14.99
2019-04-30T09:33:33.427Z,13.16
2019-04-30T09:36:01.674Z,13.36
2019-04-30T09:38:29.816Z,13.75
2019-04-30T09:40:59.373Z,14.56
2019-04-30T09:43:28.599Z,14.75
2019-04-30T09:45:59.316Z,13.98
2019-04-30T09:48:30.316Z,16.74
2019-04-30T09:51:00.270Z,15.30
2019-04-30T09:53:29.471Z,14.89
2019-04-30T09:55:59.505Z,16.67
2019-04-30T09:58:27.264Z,15.11
2019-04-30T10:00:55.394Z,15.81
2019-04-30T10:03:24.241Z,14.06
2019-04-30T10:05:52.872Z,13.64
2019-04-30T10:08:21.665Z,17.66
2019-04-30T10:10:58.822Z,16.90
2019-04-30T10:13:27.102Z,14.89
2019-04-30T10:16:01.982Z,16.90
2019-04-30T10:18:30.250Z,17.42
2019-04-30T10:20:58.914Z,17.62
2019-04-30T10:23:27.507Z,17.18
2019-04-30T10:25:55.638Z,17.13
2019-04-30T10:28:23.895Z,17.38
2019-04-30T10:30:52.052Z,18.44
2019-04-30T10:33:20.231Z,16.29
2019-04-30T10:35:49.574Z,19.02
2019-04-30T10:38:19.533Z,18.15
2019-04-30T10:40:49.227Z,17.93
2019-04-30T10:43:17.413Z,17.27
2019-04-30T10:45:45.600Z,16.58
2019-04-30T10:48:13.768Z,18.79
2019-04-30T10:50:41.907Z,18.60
2019-04-30T10:53:12.434Z,17.50
2019-04-30T10:55:39.054Z,18.79
2019-04-30T10:58:07.226Z,16.17
2019-04-30T11:00:40.118Z,18.31
2019-04-30T11:03:19.212Z,19.59
2019-04-30T11:05:41.177Z,18.41
2019-04-30T11:08:09.194Z,19.83
2019-04-30T11:10:37.421Z,21.13
2019-04-30T11:13:05.691Z,19.82
2019-04-30T11:15:34.026Z,17.34
2019-04-30T11:18:02.424Z,19.30
2019-04-30T11:20:31.054Z,18.24
2019-04-30T11:22:59.754Z,17.58
2019-04-30T11:25:30.817Z,19.77
2019-04-30T11:27:58.463Z,18.99
2019-04-30T11:30:29.408Z,21.41
2019-04-30T11:32:55.837Z,22.50
2019-04-30T11:35:24.830Z,21.26
2019-04-30T11:37:53.456Z,18.22
2019-04-30T11:40:34.452Z,19.83
2019-04-30T11:42:58.485Z,17.48
2019-04-30T11:45:47.742Z,18.77
2019-04-30T11:48:15.906Z,20.72
2019-04-30T11:50:44.155Z,21.73
2019-04-30T11:53:24.528Z,20.03
2019-04-30T11:55:42.204Z,17.31
2019-04-30T11:58:21.167Z,18.62
2019-04-30T12:00:42.255Z,18.10
2019-04-30T12:03:10.657Z,21.68
2019-04-30T12:05:38.978Z,20.83
2019-04-30T12:08:15.627Z,17.10
2019-04-30T12:11:05.921Z,18.05
2019-04-30T12:13:34.267Z,18.57
2019-04-30T12:16:02.627Z,18.13
2019-04-30T12:18:30.797Z,19.02
2019-04-30T12:20:59.173Z,18.75
2019-04-30T12:23:27.411Z,18.90
2019-04-30T12:25:55.608Z,20.24
2019-04-30T12:28:23.857Z,16.16
2019-04-30T12:30:52.069Z,16.30
2019-04-30T12:33:20.229Z,16.72
2019-04-30T12:35:50.988Z,17.04
2019-04-30T12:38:19.202Z,16.99
2019-04-30T12:40:47.474Z,16.79
2019-04-30T12:43:15.733Z,17.92
2019-04-30T12:45:43.894Z,19.69
2019-04-30T12:48:20.027Z,18.99
2019-04-30T12:51:06.033Z,17.36
2019-04-30T12:53:48.323Z,17.22
2019-04-30T12:56:35.468Z,17.70
2019-04-30T12:59:03.771Z,17.74
2019-04-30T13:01:34.169Z,18.42
2019-04-30T13:04:01.738Z,17.83
2019-04-30T13:06:30.480Z,16.29
2019-04-30T13:09:00.744Z,16.80
2019-04-30T13:11:30.832Z,18.35
2019-04-30T13:14:00.273Z,17.70
2019-04-30T13:16:29.323Z,17.46
2019-04-30T13:18:59.388Z,16.47
2019-04-30T13:21:28.478Z,16.47
2019-04-30T13:23:56.844Z,19.66
2019-04-30T13:26:25.089Z,17.34
2019-04-30T13:29:00.693Z,18.30
2019-04-30T13:31:29.474Z,19.73
2019-04-30T13:34:08.546Z,19.42
2019-04-30T13:36:36.737Z,19.05
2019-04-30T13:39:13.645Z,20.46
2019-04-30T13:42:01.225Z,19.13
2019-04-30T13:44:33.054Z,22.45
2019-04-30T13:47:01.308Z,21.05
2019-04-30T13:49:30.267Z,19.04
2019-04-30T13:51:58.524Z,20.15
2019-04-30T13:54:26.710Z,18.56
2019-04-30T13:56:54.921Z,18.79
2019-04-30T13:59:23.242Z,18.26
2019-04-30T14:01:51.358Z,17.90
2019-04-30T14:04:29.710Z,18.11
2019-04-30T14:07:15.350Z,20.03
2019-04-30T14:09:43.680Z,19.75
2019-04-30T14:12:11.920Z,20.86
2019-04-30T14:14:40.330Z,19.30
2019-04-30T14:17:09.214Z,17.76
2019-04-30T14:19:37.592Z,17.52
2019-04-30T14:22:08.823Z,18.78
2019-04-30T14:24:36.764Z,19.31
2019-04-30T14:27:06.212Z,18.30
2019-04-30T14:29:34.405Z,19.62
2019-04-30T14:32:02.638Z,19.58
2019-04-30T14:34:30.906Z,19.69
2019-04-30T14:36:59.461Z,17.83
2019-04-30T14:39:29.196Z,19.01
2019-04-30T14:42:00.068Z,19.17
2019-04-30T14:44:31.009Z,19.31
2019-04-30T14:47:09.670Z,20.07
2019-04-30T14:50:01.661Z,21.20
2019-04-30T14:52:23.636Z,21.19
2019-04-30T14:55:18.643Z,18.92
2019-04-30T14:58:00.745Z,18.23
2019-04-30T15:00:59.576Z,19.46
2019-04-30T15:03:29.480Z,18.23
2019-04-30T15:05:58.838Z,18.28
2019-04-30T15:08:26.655Z,19.65
2019-04-30T15:10:54.916Z,19.15
2019-04-30T15:13:23.071Z,18.94
2019-04-30T15:15:51.308Z,19.74
2019-04-30T15:18:21.979Z,18.68
2019-04-30T15:20:50.184Z,18.92
2019-04-30T15:23:36.472Z,17.75
2019-04-30T15:26:04.843Z,18.97
2019-04-30T15:28:33.101Z,18.09
2019-04-30T15:31:01.750Z,18.97
2019-04-30T15:33:46.118Z,19.25
2019-04-30T15:36:14.267Z,20.45
2019-04-30T15:39:01.404Z,17.79
2019-04-30T15:41:29.994Z,17.54
2019-04-30T15:43:58.135Z,17.59
2019-04-30T15:46:26.344Z,19.94
2019-04-30T15:48:54.733Z,18.98
2019-04-30T15:51:22.969Z,18.99
2019-04-30T15:53:51.149Z,17.45
2019-04-30T15:56:19.506Z,18.22
2019-04-30T15:59:08.986Z,18.01
2019-04-30T16:01:37.716Z,18.11
2019-04-30T16:04:10.093Z,18.99
2019-04-30T16:06:38.520Z,19.30
2019-04-30T16:09:08.204Z,19.72
2019-04-30T16:11:46.393Z,20.62
2019-04-30T16:14:35.352Z,20.51
2019-04-30T16:17:22.476Z,19.22
2019-04-30T16:19:50.715Z,18.39
2019-04-30T16:22:20.767Z,19.19
2019-04-30T16:24:49.507Z,19.38
2019-04-30T16:27:19.185Z,20.78
2019-04-30T16:29:49.611Z,20.56
2019-04-30T16:32:17.452Z,19.38
2019-04-30T16:34:45.645Z,18.37
2019-04-30T16:37:13.838Z,19.12
2019-04-30T16:39:42.109Z,18.62
2019-04-30T16:42:10.394Z,19.53
2019-04-30T16:44:38.552Z,19.11
2019-04-30T16:47:13.605Z,18.19
2019-04-30T16:49:35.753Z,18.47
2019-04-30T16:52:03.884Z,17.80
2019-04-30T16:54:32.041Z,18.81
2019-04-30T16:57:04.067Z,19.71
2019-04-30T16:59:41.275Z,19.69
2019-04-30T17:02:10.108Z,19.98
2019-04-30T17:04:57.262Z,21.04
2019-04-30T17:07:43.054Z,19.18
2019-04-30T17:10:18.842Z,20.41
2019-04-30T17:13:03.080Z,18.69
2019-04-30T17:15:31.880Z,21.30
2019-04-30T17:18:00.188Z,18.51
2019-04-30T17:20:28.806Z,20.20
2019-04-30T17:22:57.110Z,20.89
2019-04-30T17:25:25.308Z,19.35
2019-04-30T17:27:53.491Z,18.32
2019-04-30T17:30:21.666Z,18.98
2019-04-30T17:32:50.095Z,18.62
2019-04-30T17:35:19.185Z,19.89
2019-04-30T17:37:47.530Z,19.07
2019-04-30T17:40:19.078Z,18.26
2019-04-30T17:42:47.509Z,17.96
2019-04-30T17:45:19.355Z,17.49
2019-04-30T17:47:47.224Z,18.13
2019-04-30T17:50:15.520Z,16.98
2019-04-30T17:52:43.714Z,17.53
2019-04-30T17:55:12.168Z,16.94
2019-04-30T17:57:40.498Z,17.43
2019-04-30T18:00:19.194Z,18.67
2019-04-30T18:02:40.197Z,17.76
2019-04-30T18:05:09.114Z,18.31
2019-04-30T18:07:39.471Z,18.08
2019-04-30T18:10:10.959Z,18.04
2019-04-30T18:12:39.274Z,18.02
2019-04-30T18:15:09.405Z,17.97
2019-04-30T18:17:37.589Z,18.23
2019-04-30T18:20:29.363Z,17.82
2019-04-30T18:23:16.500Z,17.78
2019-04-30T18:25:51.426Z,18.41
2019-04-30T18:28:19.646Z,18.50
2019-04-30T18:30:49.061Z,18.50
2019-04-30T18:33:17.472Z,18.28
2019-04-30T18:35:45.677Z,18.15
2019-04-30T18:38:13.884Z,17.33
2019-04-30T18:40:42.263Z,17.14
2019-04-30T18:43:10.594Z,16.95
2019-04-30T18:45:39.613Z,16.32
2019-04-30T18:48:09.708Z,17.21
2019-04-30T18:50:37.863Z,17.30
2019-04-30T18:53:11.591Z,16.97
2019-04-30T18:55:39.798Z,17.11
2019-04-30T18:58:08.784Z,17.02
2019-04-30T19:00:40.590Z,16.90
2019-04-30T19:03:08.800Z,16.64
2019-04-30T19:05:39.311Z,16.66
2019-04-30T19:08:13.531Z,16.44
2019-04-30T19:10:54.623Z,16.41
2019-04-30T19:13:40.843Z,16.31
2019-04-30T19:16:26.712Z,16.17
2019-04-30T19:19:16.647Z,16.08
2019-04-30T19:21:44.846Z,15.96
2019-04-30T19:24:13.075Z,15.84
2019-04-30T19:26:41.268Z,15.58
2019-04-30T19:29:09.608Z,15.47
2019-04-30T19:31:39.462Z,15.23
2019-04-30T19:34:09.767Z,14.43
2019-04-30T19:36:37.834Z,14.68
2019-04-30T19:39:09.727Z,15.06
2019-04-30T19:41:38.595Z,15.05
2019-04-30T19:44:07.057Z,14.98
2019-04-30T19:46:35.326Z,14.86
2019-04-30T19:49:03.482Z,14.76
2019-04-30T19:51:31.635Z,14.62
2019-04-30T19:53:59.973Z,14.51
2019-04-30T19:56:30.330Z,14.41
2019-04-30T19:59:02.798Z,14.33
2019-04-30T20:01:28.647Z,14.15
2019-04-30T20:03:58.786Z,14.08
2019-04-30T20:06:28.729Z,14.02
2019-04-30T20:08:58.775Z,13.82
2019-04-30T20:11:26.943Z,13.80
2019-04-30T20:13:55.099Z,13.60
2019-04-30T20:16:23.287Z,13.65
2019-04-30T20:18:51.467Z,13.52
2019-04-30T20:21:27.987Z,13.43
2019-04-30T20:23:51.345Z,13.36
2019-04-30T20:26:19.525Z,13.27
2019-04-30T20:28:48.765Z,13.18
2019-04-30T20:31:18.896Z,13.16
2019-04-30T20:33:48.958Z,12.92
2019-04-30T20:36:16.679Z,12.93
2019-04-30T20:39:02.750Z,12.76
2019-04-30T20:44:19.851Z,12.64
2019-04-30T20:46:49.097Z,12.52
2019-04-30T20:49:19.215Z,12.50
2019-04-30T20:51:55.186Z,12.46
2019-04-30T20:54:19.004Z,12.28
2019-04-30T20:56:48.345Z,12.22
2019-04-30T20:59:19.059Z,12.20
2019-04-30T21:01:49.030Z,12.06
2019-04-30T21:04:17.104Z,12.00
2019-04-30T21:06:45.677Z,11.97
2019-04-30T21:09:13.859Z,11.90
2019-04-30T21:11:45.036Z,11.84
2019-04-30T21:14:12.037Z,11.76
2019-04-30T21:16:40.537Z,11.63
2019-04-30T21:19:08.789Z,11.58
2019-04-30T21:21:38.725Z,11.51
2019-04-30T21:24:07.103Z,11.48
2019-04-30T21:26:35.353Z,11.49
2019-04-30T21:29:10.954Z,11.20
2019-04-30T21:31:43.013Z,10.66
2019-04-30T21:34:23.220Z,10.60
2019-04-30T21:36:51.331Z,10.39
2019-04-30T21:39:20.165Z,10.57
2019-04-30T21:41:49.424Z,10.88
2019-04-30T21:44:17.664Z,10.94
2019-04-30T21:46:45.935Z,10.85
2019-04-30T21:49:15.258Z,10.85
2019-04-30T21:51:43.492Z,10.81
2019-04-30T21:54:11.588Z,10.62
2019-04-30T21:56:40.723Z,10.52
2019-04-30T21:59:08.876Z,10.72
2019-04-30T22:01:37.143Z,10.65
2019-04-30T22:04:05.500Z,10.62
2019-04-30T22:06:33.886Z,10.55
2019-04-30T22:09:02.139Z,10.54
2019-04-30T22:11:30.475Z,10.41
2019-04-30T22:13:58.962Z,10.35
2019-04-30T22:16:27.202Z,10.16
2019-04-30T22:18:55.400Z,10.15
2019-04-30T22:21:23.615Z,10.13
2019-04-30T22:23:51.855Z,10.30
2019-04-30T22:26:20.094Z,10.28
2019-04-30T22:28:49.420Z,10.12
2019-04-30T22:31:19.603Z,10.20
2019-04-30T22:33:49.051Z,10.18
2019-04-30T22:36:25.690Z,9.91
2019-04-30T22:39:12.818Z,9.99
2019-04-30T22:41:41.034Z,9.87
2019-04-30T22:44:09.284Z,9.74
2019-04-30T22:46:39.378Z,9.80
2019-04-30T22:49:07.685Z,9.53
2019-04-30T22:51:35.918Z,9.75
2019-04-30T22:54:04.228Z,9.76
2019-04-30T22:56:32.801Z,9.76
2019-04-30T22:59:01.153Z,9.34
2019-04-30T23:01:51.205Z,9.56
2019-04-30T23:04:28.713Z,9.48
2019-04-30T23:06:57.094Z,9.42
2019-04-30T23:09:25.383Z,9.48
2019-04-30T23:11:53.815Z,9.49
2019-04-30T23:14:22.019Z,9.40
2019-04-30T23:16:50.265Z,9.41
2019-04-30T23:19:18.493Z,8.74
2019-04-30T23:21:46.901Z,8.89
2019-04-30T23:24:15.235Z,9.19
2019-04-30T23:26:43.454Z,9.21
2019-04-30T23:29:11.719Z,9.05
2019-04-30T23:31:39.921Z,9.12
2019-04-30T23:34:17.841Z,9.16
2019-04-30T23:36:38.199Z,9.15
2019-04-30T23:39:06.835Z,9.13
2019-04-30T23:41:35.085Z,8.34
2019-04-30T23:44:03.487Z,8.02
2019-04-30T23:46:31.698Z,8.42
2019-04-30T23:48:59.863Z,8.38
2019-04-30T23:51:28.058Z,7.81
2019-04-30T23:53:56.348Z,6.70
2019-04-30T23:56:24.613Z,8.03
2019-04-30T23:58:52.915Z,8.23
